sensor_id;sensor_type;location;lat;lon;timestamp;temperature;humidity
73792;DHT22;62122;41.112;16.694;2022-08-05T00:02:23;25.21;74.06
73792;DHT22;62122;41.112;16.694;2022-08-05T00:05:27;25.04;73.66
73792;DHT22;62122;41.112;16.694;2022-08-05T00:08:31;25.15;72.26
73792;DHT22;62122;41.112;16.694;2022-08-05T00:11:35;25.10;70.78
73792;DHT22;62122;41.112;16.694;2022-08-05T00:14:39;24.86;70.05
73792;DHT22;62122;41.112;16.694;2022-08-05T00:17:42;24.74;69.20
73792;DHT22;62122;41.112;16.694;2022-08-05T00:20:46;24.57;67.61
73792;DHT22;62122;41.112;16.694;2022-08-05T00:23:49;24.44;66.58
73792;DHT22;62122;41.112;16.694;2022-08-05T00:26:53;24.59;65.27
73792;DHT22;62122;41.112;16.694;2022-08-05T00:29:58;24.61;63.71
73792;DHT22;62122;41.112;16.694;2022-08-05T00:33:02;24.76;62.83
73792;DHT22;62122;41.112;16.694;2022-08-05T00:36:06;24.70;62.59
73792;DHT22;62122;41.112;16.694;2022-08-05T00:39:10;24.63;63.08
73792;DHT22;62122;41.112;16.694;2022-08-05T00:42:31;24.59;63.63
73792;DHT22;62122;41.112;16.694;2022-08-05T00:45:35;24.52;64.20
73792;DHT22;62122;41.112;16.694;2022-08-05T00:48:39;24.48;63.64
73792;DHT22;62122;41.112;16.694;2022-08-05T00:51:43;24.49;63.47
73792;DHT22;62122;41.112;16.694;2022-08-05T00:54:46;24.61;63.17
73792;DHT22;62122;41.112;16.694;2022-08-05T00:57:50;24.61;62.80
73792;DHT22;62122;41.112;16.694;2022-08-05T01:00:54;24.60;63.74
73792;DHT22;62122;41.112;16.694;2022-08-05T01:03:58;24.71;63.53
73792;DHT22;62122;41.112;16.694;2022-08-05T01:07:02;24.71;62.46
73792;DHT22;62122;41.112;16.694;2022-08-05T01:10:06;24.77;61.39
73792;DHT22;62122;41.112;16.694;2022-08-05T01:13:17;24.73;60.28
73792;DHT22;62122;41.112;16.694;2022-08-05T01:16:33;24.63;59.87
73792;DHT22;62122;41.112;16.694;2022-08-05T01:19:45;24.52;60.44
73792;DHT22;62122;41.112;16.694;2022-08-05T01:29:49;24.55;60.95
73792;DHT22;62122;41.112;16.694;2022-08-05T01:32:55;24.49;61.20
73792;DHT22;62122;41.112;16.694;2022-08-05T01:36:07;24.44;61.37
73792;DHT22;62122;41.112;16.694;2022-08-05T01:39:14;24.46;61.73
73792;DHT22;62122;41.112;16.694;2022-08-05T01:42:19;24.57;61.41
73792;DHT22;62122;41.112;16.694;2022-08-05T01:45:25;24.61;61.11
73792;DHT22;62122;41.112;16.694;2022-08-05T01:48:30;24.53;60.80
73792;DHT22;62122;41.112;16.694;2022-08-05T01:51:37;24.36;61.62
73792;DHT22;62122;41.112;16.694;2022-08-05T01:54:45;24.11;62.62
73792;DHT22;62122;41.112;16.694;2022-08-05T01:57:51;24.15;62.84
73792;DHT22;62122;41.112;16.694;2022-08-05T02:00:57;24.16;63.22
73792;DHT22;62122;41.112;16.694;2022-08-05T02:04:03;24.22;62.97
73792;DHT22;62122;41.112;16.694;2022-08-05T02:07:08;24.28;63.05
73792;DHT22;62122;41.112;16.694;2022-08-05T02:10:13;24.29;63.64
73792;DHT22;62122;41.112;16.694;2022-08-05T02:13:24;24.25;63.59
73792;DHT22;62122;41.112;16.694;2022-08-05T02:16:51;24.25;62.96
73792;DHT22;62122;41.112;16.694;2022-08-05T02:19:59;24.30;61.81
73792;DHT22;62122;41.112;16.694;2022-08-05T02:23:08;24.35;61.15
73792;DHT22;62122;41.112;16.694;2022-08-05T02:26:22;24.23;60.52
73792;DHT22;62122;41.112;16.694;2022-08-05T02:29:28;24.25;60.42
73792;DHT22;62122;41.112;16.694;2022-08-05T02:32:35;24.25;59.91
73792;DHT22;62122;41.112;16.694;2022-08-05T02:35:41;24.30;58.69
73792;DHT22;62122;41.112;16.694;2022-08-05T02:38:47;24.28;58.15
73792;DHT22;62122;41.112;16.694;2022-08-05T02:41:52;24.25;57.64
73792;DHT22;62122;41.112;16.694;2022-08-05T02:44:59;24.33;56.99
73792;DHT22;62122;41.112;16.694;2022-08-05T02:48:04;24.36;56.88
73792;DHT22;62122;41.112;16.694;2022-08-05T02:51:08;24.36;56.22
73792;DHT22;62122;41.112;16.694;2022-08-05T02:54:12;24.30;56.29
73792;DHT22;62122;41.112;16.694;2022-08-05T02:57:18;24.36;55.78
73792;DHT22;62122;41.112;16.694;2022-08-05T03:00:22;24.32;55.72
73792;DHT22;62122;41.112;16.694;2022-08-05T03:03:28;24.22;55.71
73792;DHT22;62122;41.112;16.694;2022-08-05T03:06:33;24.22;55.56
73792;DHT22;62122;41.112;16.694;2022-08-05T03:09:41;24.23;55.24
73792;DHT22;62122;41.112;16.694;2022-08-05T03:12:45;24.25;55.04
73792;DHT22;62122;41.112;16.694;2022-08-05T03:15:50;24.35;54.49
73792;DHT22;62122;41.112;16.694;2022-08-05T03:18:53;24.44;54.25
73792;DHT22;62122;41.112;16.694;2022-08-05T03:21:57;24.50;53.93
73792;DHT22;62122;41.112;16.694;2022-08-05T03:25:01;24.44;54.04
73792;DHT22;62122;41.112;16.694;2022-08-05T03:28:07;24.53;53.78
73792;DHT22;62122;41.112;16.694;2022-08-05T03:31:12;24.64;53.47
73792;DHT22;62122;41.112;16.694;2022-08-05T03:34:16;24.66;53.44
73792;DHT22;62122;41.112;16.694;2022-08-05T03:37:21;24.64;53.21
73792;DHT22;62122;41.112;16.694;2022-08-05T03:40:25;24.76;52.79
73792;DHT22;62122;41.112;16.694;2022-08-05T03:43:29;24.70;52.93
73792;DHT22;62122;41.112;16.694;2022-08-05T03:46:33;24.57;53.09
73792;DHT22;62122;41.112;16.694;2022-08-05T03:49:37;24.55;52.80
73792;DHT22;62122;41.112;16.694;2022-08-05T03:52:56;24.36;53.21
73792;DHT22;62122;41.112;16.694;2022-08-05T03:56:25;24.40;52.79
73792;DHT22;62122;41.112;16.694;2022-08-05T03:59:36;24.43;52.72
73792;DHT22;62122;41.112;16.694;2022-08-05T04:02:48;24.39;52.66
73792;DHT22;62122;41.112;16.694;2022-08-05T04:05:53;24.33;52.20
73792;DHT22;62122;41.112;16.694;2022-08-05T04:08:58;24.18;52.57
73792;DHT22;62122;41.112;16.694;2022-08-05T04:12:02;24.00;52.73
73792;DHT22;62122;41.112;16.694;2022-08-05T04:15:06;23.95;52.91
73792;DHT22;62122;41.112;16.694;2022-08-05T04:18:10;24.06;52.73
73792;DHT22;62122;41.112;16.694;2022-08-05T04:21:15;24.21;52.56
73792;DHT22;62122;41.112;16.694;2022-08-05T04:24:19;24.36;52.05
73792;DHT22;62122;41.112;16.694;2022-08-05T04:27:22;24.30;52.13
73792;DHT22;62122;41.112;16.694;2022-08-05T04:30:26;24.40;51.63
73792;DHT22;62122;41.112;16.694;2022-08-05T04:33:30;24.48;51.44
73792;DHT22;62122;41.112;16.694;2022-08-05T04:36:34;24.46;51.46
73792;DHT22;62122;41.112;16.694;2022-08-05T04:39:38;24.55;51.25
73792;DHT22;62122;41.112;16.694;2022-08-05T04:42:42;24.60;50.74
73792;DHT22;62122;41.112;16.694;2022-08-05T04:45:46;24.63;50.75
73792;DHT22;62122;41.112;16.694;2022-08-05T04:48:50;24.84;50.39
73792;DHT22;62122;41.112;16.694;2022-08-05T04:51:54;24.87;50.40
73792;DHT22;62122;41.112;16.694;2022-08-05T04:54:58;24.94;50.33
73792;DHT22;62122;41.112;16.694;2022-08-05T04:58:03;24.91;50.51
73792;DHT22;62122;41.112;16.694;2022-08-05T05:01:08;24.98;50.45
73792;DHT22;62122;41.112;16.694;2022-08-05T05:04:12;25.07;50.41
73792;DHT22;62122;41.112;16.694;2022-08-05T05:07:16;25.17;50.15
73792;DHT22;62122;41.112;16.694;2022-08-05T05:10:20;25.25;49.94
73792;DHT22;62122;41.112;16.694;2022-08-05T05:13:23;25.29;49.93
73792;DHT22;62122;41.112;16.694;2022-08-05T05:16:28;25.39;49.61
73792;DHT22;62122;41.112;16.694;2022-08-05T05:19:32;25.47;49.50
73792;DHT22;62122;41.112;16.694;2022-08-05T05:22:36;25.70;49.24
73792;DHT22;62122;41.112;16.694;2022-08-05T05:25:41;25.69;49.23
73792;DHT22;62122;41.112;16.694;2022-08-05T05:28:46;25.86;49.19
73792;DHT22;62122;41.112;16.694;2022-08-05T05:31:49;25.96;49.13
73792;DHT22;62122;41.112;16.694;2022-08-05T05:34:54;26.02;48.88
73792;DHT22;62122;41.112;16.694;2022-08-05T05:37:59;26.07;48.84
73792;DHT22;62122;41.112;16.694;2022-08-05T05:41:04;26.17;48.56
73792;DHT22;62122;41.112;16.694;2022-08-05T05:44:08;26.34;48.48
73792;DHT22;62122;41.112;16.694;2022-08-05T05:47:12;26.51;48.28
73792;DHT22;62122;41.112;16.694;2022-08-05T05:50:17;26.63;47.98
73792;DHT22;62122;41.112;16.694;2022-08-05T05:53:21;26.79;47.83
73792;DHT22;62122;41.112;16.694;2022-08-05T05:56:27;26.89;47.68
73792;DHT22;62122;41.112;16.694;2022-08-05T05:59:31;27.04;47.18
73792;DHT22;62122;41.112;16.694;2022-08-05T06:02:35;27.14;47.00
73792;DHT22;62122;41.112;16.694;2022-08-05T06:05:39;27.29;46.86
73792;DHT22;62122;41.112;16.694;2022-08-05T06:08:43;27.51;46.49
73792;DHT22;62122;41.112;16.694;2022-08-05T06:11:46;27.61;46.91
73792;DHT22;62122;41.112;16.694;2022-08-05T06:14:50;27.72;46.75
73792;DHT22;62122;41.112;16.694;2022-08-05T06:17:54;27.89;46.73
73792;DHT22;62122;41.112;16.694;2022-08-05T06:20:58;27.96;46.22
73792;DHT22;62122;41.112;16.694;2022-08-05T06:24:06;28.20;46.01
73792;DHT22;62122;41.112;16.694;2022-08-05T06:27:10;28.60;46.84
73792;DHT22;62122;41.112;16.694;2022-08-05T06:30:15;28.88;45.33
73792;DHT22;62122;41.112;16.694;2022-08-05T06:33:19;29.08;44.70
73792;DHT22;62122;41.112;16.694;2022-08-05T06:36:23;29.36;44.36
73792;DHT22;62122;41.112;16.694;2022-08-05T06:39:27;30.13;43.16
73792;DHT22;62122;41.112;16.694;2022-08-05T06:42:31;31.28;40.86
73792;DHT22;62122;41.112;16.694;2022-08-05T06:45:35;33.02;37.74
73792;DHT22;62122;41.112;16.694;2022-08-05T06:48:39;33.59;36.61
73792;DHT22;62122;41.112;16.694;2022-08-05T06:51:43;35.57;33.54
73792;DHT22;62122;41.112;16.694;2022-08-05T06:54:47;36.29;31.97
73792;DHT22;62122;41.112;16.694;2022-08-05T06:57:51;37.94;29.85
73792;DHT22;62122;41.112;16.694;2022-08-05T07:00:59;38.90;29.06
73792;DHT22;62122;41.112;16.694;2022-08-05T07:04:04;39.61;28.34
73792;DHT22;62122;41.112;16.694;2022-08-05T07:07:08;40.35;27.82
73792;DHT22;62122;41.112;16.694;2022-08-05T07:10:11;40.39;27.70
73792;DHT22;62122;41.112;16.694;2022-08-05T07:13:16;39.50;28.89
73792;DHT22;62122;41.112;16.694;2022-08-05T07:16:38;39.16;29.49
73792;DHT22;62122;41.112;16.694;2022-08-05T07:19:55;40.87;27.77
73792;DHT22;62122;41.112;16.694;2022-08-05T07:22:59;40.05;28.93
73792;DHT22;62122;41.112;16.694;2022-08-05T07:26:03;40.56;28.15
73792;DHT22;62122;41.112;16.694;2022-08-05T07:29:08;39.19;29.55
73792;DHT22;62122;41.112;16.694;2022-08-05T07:32:14;40.35;28.59
73792;DHT22;62122;41.112;16.694;2022-08-05T07:35:18;41.27;27.39
73792;DHT22;62122;41.112;16.694;2022-08-05T07:38:22;42.13;26.71
73792;DHT22;62122;41.112;16.694;2022-08-05T07:41:26;41.15;27.69
73792;DHT22;62122;41.112;16.694;2022-08-05T07:44:30;40.35;28.76
73792;DHT22;62122;41.112;16.694;2022-08-05T07:47:33;40.02;29.25
73792;DHT22;62122;41.112;16.694;2022-08-05T07:50:37;40.83;28.55
73792;DHT22;62122;41.112;16.694;2022-08-05T07:53:41;40.00;28.87
73792;DHT22;62122;41.112;16.694;2022-08-05T07:56:45;38.83;30.75
73792;DHT22;62122;41.112;16.694;2022-08-05T07:59:50;38.00;31.18
73792;DHT22;62122;41.112;16.694;2022-08-05T08:02:54;38.09;31.87
73792;DHT22;62122;41.112;16.694;2022-08-05T08:05:58;39.91;29.56
73792;DHT22;62122;41.112;16.694;2022-08-05T08:09:02;39.40;30.20
73792;DHT22;62122;41.112;16.694;2022-08-05T08:12:06;39.78;29.16
73792;DHT22;62122;41.112;16.694;2022-08-05T08:15:10;38.96;29.74
73792;DHT22;62122;41.112;16.694;2022-08-05T08:18:14;38.61;30.88
73792;DHT22;62122;41.112;16.694;2022-08-05T08:21:19;39.25;30.03
73792;DHT22;62122;41.112;16.694;2022-08-05T08:24:23;39.42;29.37
73792;DHT22;62122;41.112;16.694;2022-08-05T08:27:26;37.16;32.49
73792;DHT22;62122;41.112;16.694;2022-08-05T08:30:30;37.44;31.30
73792;DHT22;62122;41.112;16.694;2022-08-05T08:33:34;39.27;29.91
73792;DHT22;62122;41.112;16.694;2022-08-05T08:36:39;38.06;32.05
73792;DHT22;62122;41.112;16.694;2022-08-05T08:39:43;39.75;29.36
73792;DHT22;62122;41.112;16.694;2022-08-05T08:42:49;39.56;29.87
73792;DHT22;62122;41.112;16.694;2022-08-05T08:45:54;39.27;30.13
73792;DHT22;62122;41.112;16.694;2022-08-05T08:49:01;39.01;30.20
73792;DHT22;62122;41.112;16.694;2022-08-05T08:52:16;38.24;31.09
73792;DHT22;62122;41.112;16.694;2022-08-05T08:55:20;37.75;30.92
73792;DHT22;62122;41.112;16.694;2022-08-05T08:58:24;37.69;31.99
73792;DHT22;62122;41.112;16.694;2022-08-05T09:01:28;37.72;31.66
73792;DHT22;62122;41.112;16.694;2022-08-05T09:04:34;37.85;30.97
73792;DHT22;62122;41.112;16.694;2022-08-05T09:07:42;36.82;32.41
73792;DHT22;62122;41.112;16.694;2022-08-05T09:10:46;35.16;34.26
73792;DHT22;62122;41.112;16.694;2022-08-05T09:13:52;34.21;35.09
73792;DHT22;62122;41.112;16.694;2022-08-05T09:16:56;33.96;35.67
73792;DHT22;62122;41.112;16.694;2022-08-05T09:20:02;33.27;36.82
73792;DHT22;62122;41.112;16.694;2022-08-05T09:23:11;32.89;37.37
73792;DHT22;62122;41.112;16.694;2022-08-05T09:26:16;33.04;37.03
73792;DHT22;62122;41.112;16.694;2022-08-05T09:29:42;33.04;36.43
73792;DHT22;62122;41.112;16.694;2022-08-05T09:32:49;32.66;36.82
73792;DHT22;62122;41.112;16.694;2022-08-05T09:39:07;32.63;38.77
73792;DHT22;62122;41.112;16.694;2022-08-05T09:42:13;32.90;38.69
73792;DHT22;62122;41.112;16.694;2022-08-05T09:45:18;32.75;39.02
73792;DHT22;62122;41.112;16.694;2022-08-05T09:48:29;32.49;38.72
73792;DHT22;62122;41.112;16.694;2022-08-05T09:51:35;32.41;39.24
73792;DHT22;62122;41.112;16.694;2022-08-05T09:54:50;32.66;39.36
73792;DHT22;62122;41.112;16.694;2022-08-05T09:57:54;32.84;39.22
73792;DHT22;62122;41.112;16.694;2022-08-05T10:00:59;32.46;39.52
73792;DHT22;62122;41.112;16.694;2022-08-05T10:04:09;32.89;38.54
73792;DHT22;62122;41.112;16.694;2022-08-05T10:07:16;32.78;38.49
73792;DHT22;62122;41.112;16.694;2022-08-05T10:10:48;32.55;39.31
73792;DHT22;62122;41.112;16.694;2022-08-05T10:13:52;32.39;39.93
73792;DHT22;62122;41.112;16.694;2022-08-05T10:17:11;32.75;39.67
73792;DHT22;62122;41.112;16.694;2022-08-05T10:20:15;32.48;40.31
73792;DHT22;62122;41.112;16.694;2022-08-05T10:23:29;32.15;41.11
73792;DHT22;62122;41.112;16.694;2022-08-05T10:26:33;32.06;40.47
73792;DHT22;62122;41.112;16.694;2022-08-05T10:29:38;32.61;39.84
73792;DHT22;62122;41.112;16.694;2022-08-05T10:32:41;32.07;40.18
73792;DHT22;62122;41.112;16.694;2022-08-05T10:35:45;32.31;39.85
73792;DHT22;62122;41.112;16.694;2022-08-05T10:38:51;31.97;41.47
73792;DHT22;62122;41.112;16.694;2022-08-05T10:42:09;32.03;41.95
73792;DHT22;62122;41.112;16.694;2022-08-05T10:45:14;31.94;42.41
73792;DHT22;62122;41.112;16.694;2022-08-05T10:48:46;31.63;43.29
73792;DHT22;62122;41.112;16.694;2022-08-05T10:51:52;32.18;42.47
73792;DHT22;62122;41.112;16.694;2022-08-05T10:55:05;32.07;42.63
73792;DHT22;62122;41.112;16.694;2022-08-05T10:58:10;31.94;42.89
73792;DHT22;62122;41.112;16.694;2022-08-05T11:01:14;32.18;42.62
73792;DHT22;62122;41.112;16.694;2022-08-05T11:04:22;32.01;43.14
73792;DHT22;62122;41.112;16.694;2022-08-05T11:07:26;31.45;42.73
73792;DHT22;62122;41.112;16.694;2022-08-05T11:10:31;31.94;42.53
73792;DHT22;62122;41.112;16.694;2022-08-05T11:13:40;32.48;42.08
73792;DHT22;62122;41.112;16.694;2022-08-05T11:23:41;33.16;39.24
73792;DHT22;62122;41.112;16.694;2022-08-05T11:26:46;33.00;41.07
73792;DHT22;62122;41.112;16.694;2022-08-05T11:29:58;32.97;41.38
73792;DHT22;62122;41.112;16.694;2022-08-05T11:39:50;32.72;44.23
73792;DHT22;62122;41.112;16.694;2022-08-05T11:42:54;32.61;45.94
73792;DHT22;62122;41.112;16.694;2022-08-05T11:45:59;32.62;46.54
73792;DHT22;62122;41.112;16.694;2022-08-05T11:49:05;32.72;46.08
73792;DHT22;62122;41.112;16.694;2022-08-05T11:52:09;32.38;47.75
73792;DHT22;62122;41.112;16.694;2022-08-05T11:55:13;32.78;45.36
73792;DHT22;62122;41.112;16.694;2022-08-05T11:58:35;33.13;42.61
73792;DHT22;62122;41.112;16.694;2022-08-05T12:05:03;32.84;44.22
73792;DHT22;62122;41.112;16.694;2022-08-05T12:08:08;33.28;42.39
73792;DHT22;62122;41.112;16.694;2022-08-05T12:11:18;33.31;41.15
73792;DHT22;62122;41.112;16.694;2022-08-05T12:14:22;33.40;42.48
73792;DHT22;62122;41.112;16.694;2022-08-05T12:17:34;33.71;40.98
73792;DHT22;62122;41.112;16.694;2022-08-05T12:20:38;33.27;41.27
73792;DHT22;62122;41.112;16.694;2022-08-05T12:24:04;33.14;40.26
73792;DHT22;62122;41.112;16.694;2022-08-05T12:27:09;33.81;41.23
73792;DHT22;62122;41.112;16.694;2022-08-05T12:30:13;33.78;41.70
73792;DHT22;62122;41.112;16.694;2022-08-05T12:33:17;33.79;40.72
73792;DHT22;62122;41.112;16.694;2022-08-05T12:36:21;33.96;39.77
73792;DHT22;62122;41.112;16.694;2022-08-05T12:39:25;33.57;40.95
73792;DHT22;62122;41.112;16.694;2022-08-05T12:42:31;33.79;40.82
73792;DHT22;62122;41.112;16.694;2022-08-05T12:45:35;33.41;42.66
73792;DHT22;62122;41.112;16.694;2022-08-05T12:48:39;33.28;42.30
73792;DHT22;62122;41.112;16.694;2022-08-05T12:54:51;33.53;41.71
73792;DHT22;62122;41.112;16.694;2022-08-05T12:57:57;33.21;42.29
73792;DHT22;62122;41.112;16.694;2022-08-05T13:01:01;33.20;42.59
73792;DHT22;62122;41.112;16.694;2022-08-05T13:04:05;33.91;40.35
73792;DHT22;62122;41.112;16.694;2022-08-05T13:07:12;34.50;38.54
73792;DHT22;62122;41.112;16.694;2022-08-05T13:10:16;34.19;39.05
73792;DHT22;62122;41.112;16.694;2022-08-05T13:13:21;33.33;41.52
73792;DHT22;62122;41.112;16.694;2022-08-05T13:16:25;33.38;41.72
73792;DHT22;62122;41.112;16.694;2022-08-05T13:19:29;33.28;43.64
73792;DHT22;62122;41.112;16.694;2022-08-05T13:22:36;32.59;44.63
73792;DHT22;62122;41.112;16.694;2022-08-05T13:25:40;33.09;42.77
73792;DHT22;62122;41.112;16.694;2022-08-05T13:28:45;33.10;42.65
73792;DHT22;62122;41.112;16.694;2022-08-05T13:31:49;33.23;43.67
73792;DHT22;62122;41.112;16.694;2022-08-05T13:34:53;32.95;43.88
73792;DHT22;62122;41.112;16.694;2022-08-05T13:37:58;33.61;42.17
73792;DHT22;62122;41.112;16.694;2022-08-05T13:41:01;33.78;40.62
73792;DHT22;62122;41.112;16.694;2022-08-05T13:44:05;33.06;43.52
73792;DHT22;62122;41.112;16.694;2022-08-05T13:47:10;33.65;40.52
73792;DHT22;62122;41.112;16.694;2022-08-05T13:50:15;33.44;41.19
73792;DHT22;62122;41.112;16.694;2022-08-05T13:53:19;33.53;40.64
73792;DHT22;62122;41.112;16.694;2022-08-05T13:56:23;33.21;40.03
73792;DHT22;62122;41.112;16.694;2022-08-05T13:59:26;33.02;40.57
73792;DHT22;62122;41.112;16.694;2022-08-05T14:02:30;32.69;41.03
73792;DHT22;62122;41.112;16.694;2022-08-05T14:05:34;32.83;41.33
73792;DHT22;62122;41.112;16.694;2022-08-05T14:08:38;33.40;40.94
73792;DHT22;62122;41.112;16.694;2022-08-05T14:11:41;33.68;39.85
73792;DHT22;62122;41.112;16.694;2022-08-05T14:14:45;33.62;39.92
73792;DHT22;62122;41.112;16.694;2022-08-05T14:17:52;33.89;38.83
73792;DHT22;62122;41.112;16.694;2022-08-05T14:20:57;33.85;39.41
73792;DHT22;62122;41.112;16.694;2022-08-05T14:24:01;34.26;38.57
73792;DHT22;62122;41.112;16.694;2022-08-05T14:27:05;34.00;39.15
73792;DHT22;62122;41.112;16.694;2022-08-05T14:30:09;33.92;37.16
73792;DHT22;62122;41.112;16.694;2022-08-05T14:33:14;33.34;38.81
73792;DHT22;62122;41.112;16.694;2022-08-05T14:36:18;33.88;37.44
73792;DHT22;62122;41.112;16.694;2022-08-05T14:39:22;34.35;36.05
73792;DHT22;62122;41.112;16.694;2022-08-05T14:42:25;34.64;36.20
73792;DHT22;62122;41.112;16.694;2022-08-05T14:45:29;34.90;35.70
73792;DHT22;62122;41.112;16.694;2022-08-05T14:48:33;34.74;36.25
73792;DHT22;62122;41.112;16.694;2022-08-05T14:51:38;34.10;37.78
73792;DHT22;62122;41.112;16.694;2022-08-05T14:54:43;33.57;39.32
73792;DHT22;62122;41.112;16.694;2022-08-05T14:57:48;33.86;39.79
73792;DHT22;62122;41.112;16.694;2022-08-05T15:00:52;34.16;38.49
73792;DHT22;62122;41.112;16.694;2022-08-05T15:03:57;34.35;38.05
73792;DHT22;62122;41.112;16.694;2022-08-05T15:07:01;33.89;39.45
73792;DHT22;62122;41.112;16.694;2022-08-05T15:10:07;33.96;38.90
73792;DHT22;62122;41.112;16.694;2022-08-05T15:13:11;33.86;37.41
73792;DHT22;62122;41.112;16.694;2022-08-05T15:16:15;33.85;39.83
73792;DHT22;62122;41.112;16.694;2022-08-05T15:19:19;33.47;40.91
73792;DHT22;62122;41.112;16.694;2022-08-05T15:22:23;33.88;38.04
73792;DHT22;62122;41.112;16.694;2022-08-05T15:25:28;33.72;41.11
73792;DHT22;62122;41.112;16.694;2022-08-05T15:28:32;34.16;39.86
73792;DHT22;62122;41.112;16.694;2022-08-05T15:31:37;33.78;39.93
73792;DHT22;62122;41.112;16.694;2022-08-05T15:34:41;34.06;39.77
73792;DHT22;62122;41.112;16.694;2022-08-05T15:37:46;33.43;40.33
73792;DHT22;62122;41.112;16.694;2022-08-05T15:40:50;33.13;40.21
73792;DHT22;62122;41.112;16.694;2022-08-05T15:43:53;33.09;40.40
73792;DHT22;62122;41.112;16.694;2022-08-05T15:47:00;33.26;41.42
73792;DHT22;62122;41.112;16.694;2022-08-05T15:50:05;33.07;41.44
73792;DHT22;62122;41.112;16.694;2022-08-05T15:53:10;33.27;40.83
73792;DHT22;62122;41.112;16.694;2022-08-05T15:56:14;33.07;41.02
73792;DHT22;62122;41.112;16.694;2022-08-05T15:59:17;33.17;41.53
73792;DHT22;62122;41.112;16.694;2022-08-05T16:02:22;33.10;39.46
73792;DHT22;62122;41.112;16.694;2022-08-05T16:05:26;32.65;40.78
73792;DHT22;62122;41.112;16.694;2022-08-05T16:08:30;32.53;41.61
73792;DHT22;62122;41.112;16.694;2022-08-05T16:11:35;32.66;40.85
73792;DHT22;62122;41.112;16.694;2022-08-05T16:14:40;32.83;39.47
73792;DHT22;62122;41.112;16.694;2022-08-05T16:17:44;33.00;39.11
73792;DHT22;62122;41.112;16.694;2022-08-05T16:20:49;33.06;38.58
73792;DHT22;62122;41.112;16.694;2022-08-05T16:23:53;32.99;38.97
73792;DHT22;62122;41.112;16.694;2022-08-05T16:26:59;32.99;38.76
73792;DHT22;62122;41.112;16.694;2022-08-05T16:30:03;32.93;38.28
73792;DHT22;62122;41.112;16.694;2022-08-05T16:33:07;32.96;36.66
73792;DHT22;62122;41.112;16.694;2022-08-05T16:36:11;32.86;36.37
73792;DHT22;62122;41.112;16.694;2022-08-05T16:39:16;32.75;36.66
73792;DHT22;62122;41.112;16.694;2022-08-05T16:42:20;32.68;36.47
73792;DHT22;62122;41.112;16.694;2022-08-05T16:45:25;32.41;37.64
73792;DHT22;62122;41.112;16.694;2022-08-05T16:48:28;32.29;38.22
73792;DHT22;62122;41.112;16.694;2022-08-05T16:51:32;32.41;38.53
73792;DHT22;62122;41.112;16.694;2022-08-05T16:54:37;32.35;38.65
73792;DHT22;62122;41.112;16.694;2022-08-05T16:57:41;32.25;39.65
73792;DHT22;62122;41.112;16.694;2022-08-05T17:00:44;32.23;40.10
73792;DHT22;62122;41.112;16.694;2022-08-05T17:03:48;31.84;41.02
73792;DHT22;62122;41.112;16.694;2022-08-05T17:06:55;31.72;39.95
73792;DHT22;62122;41.112;16.694;2022-08-05T17:09:59;31.84;40.03
73792;DHT22;62122;41.112;16.694;2022-08-05T17:13:03;31.80;41.54
73792;DHT22;62122;41.112;16.694;2022-08-05T17:16:08;31.79;40.30
73792;DHT22;62122;41.112;16.694;2022-08-05T17:19:12;31.52;38.98
73792;DHT22;62122;41.112;16.694;2022-08-05T17:22:15;31.49;39.70
73792;DHT22;62122;41.112;16.694;2022-08-05T17:25:19;31.59;39.46
73792;DHT22;62122;41.112;16.694;2022-08-05T17:28:23;31.53;40.09
73792;DHT22;62122;41.112;16.694;2022-08-05T17:31:27;31.49;40.18
73792;DHT22;62122;41.112;16.694;2022-08-05T17:34:31;31.41;40.54
73792;DHT22;62122;41.112;16.694;2022-08-05T17:37:35;31.29;40.83
73792;DHT22;62122;41.112;16.694;2022-08-05T17:40:39;31.14;41.47
73792;DHT22;62122;41.112;16.694;2022-08-05T17:43:43;31.07;41.55
73792;DHT22;62122;41.112;16.694;2022-08-05T17:46:47;30.98;41.83
73792;DHT22;62122;41.112;16.694;2022-08-05T17:49:51;30.97;41.40
73792;DHT22;62122;41.112;16.694;2022-08-05T17:53:03;30.88;40.86
73792;DHT22;62122;41.112;16.694;2022-08-05T17:56:07;30.77;41.26
73792;DHT22;62122;41.112;16.694;2022-08-05T17:59:12;30.70;41.43
73792;DHT22;62122;41.112;16.694;2022-08-05T18:02:16;30.67;41.92
73792;DHT22;62122;41.112;16.694;2022-08-05T18:05:21;30.59;42.30
73792;DHT22;62122;41.112;16.694;2022-08-05T18:08:25;30.52;42.45
73792;DHT22;62122;41.112;16.694;2022-08-05T18:11:31;30.50;42.02
73792;DHT22;62122;41.112;16.694;2022-08-05T18:14:36;30.47;42.10
73792;DHT22;62122;41.112;16.694;2022-08-05T18:17:40;30.47;41.54
73792;DHT22;62122;41.112;16.694;2022-08-05T18:20:44;30.43;41.34
73792;DHT22;62122;41.112;16.694;2022-08-05T18:23:48;30.44;41.62
73792;DHT22;62122;41.112;16.694;2022-08-05T18:26:52;30.36;41.94
73792;DHT22;62122;41.112;16.694;2022-08-05T18:29:57;30.30;42.41
73792;DHT22;62122;41.112;16.694;2022-08-05T18:33:01;30.25;42.60
73792;DHT22;62122;41.112;16.694;2022-08-05T18:36:06;30.23;42.69
73792;DHT22;62122;41.112;16.694;2022-08-05T18:39:10;30.15;42.52
73792;DHT22;62122;41.112;16.694;2022-08-05T18:42:14;30.06;42.50
73792;DHT22;62122;41.112;16.694;2022-08-05T18:45:19;30.04;42.57
73792;DHT22;62122;41.112;16.694;2022-08-05T18:48:23;30.04;42.73
73792;DHT22;62122;41.112;16.694;2022-08-05T18:51:27;29.94;42.75
73792;DHT22;62122;41.112;16.694;2022-08-05T18:54:49;29.91;42.63
73792;DHT22;62122;41.112;16.694;2022-08-05T18:57:53;29.89;42.08
73792;DHT22;62122;41.112;16.694;2022-08-05T19:00:57;29.89;42.23
73792;DHT22;62122;41.112;16.694;2022-08-05T19:04:01;29.92;42.15
73792;DHT22;62122;41.112;16.694;2022-08-05T19:07:05;29.81;42.00
73792;DHT22;62122;41.112;16.694;2022-08-05T19:10:08;29.61;41.20
73792;DHT22;62122;41.112;16.694;2022-08-05T19:13:12;29.43;41.60
73792;DHT22;62122;41.112;16.694;2022-08-05T19:16:16;29.30;41.87
73792;DHT22;62122;41.112;16.694;2022-08-05T19:19:20;29.27;41.99
73792;DHT22;62122;41.112;16.694;2022-08-05T19:22:24;29.31;41.60
73792;DHT22;62122;41.112;16.694;2022-08-05T19:25:27;29.17;41.60
73792;DHT22;62122;41.112;16.694;2022-08-05T19:28:31;29.20;41.56
73792;DHT22;62122;41.112;16.694;2022-08-05T19:31:37;29.26;41.17
73792;DHT22;62122;41.112;16.694;2022-08-05T19:34:41;29.20;40.76
73792;DHT22;62122;41.112;16.694;2022-08-05T19:37:45;29.23;40.46
73792;DHT22;62122;41.112;16.694;2022-08-05T19:40:48;29.30;40.40
73792;DHT22;62122;41.112;16.694;2022-08-05T19:43:53;29.27;40.37